Главная страница
METAR-TAF:

METAR-TAF

Аэропорты :

Белгород, Россия

широта: 50-38-36N, долгота: 036-35-24E, высота над уровнем моря: 224 м

Текущие метеонаблюдения

Эта сводка был подготовлена 25 минут назад, в 02:30 UTC
Ветер 6 Узел от южный-юго-западный
Температура 17°C
Влажность 52%
Давление 1016 hPa
Видимость 10 км и более
Нет облачности ниже 1500 м, и нет кучево-дождевой облачности

METAR: UUOB 210230Z 21003MPS CAVOK 17/07 Q1016 R11/090060 NOSIG

Время: 05:55 (02:55 UTC)

Прогноз

Эта сводка был подготовлена 55 минут назад, в 02:00 UTC
Прогноз действительный с 21-го 03 UTC до 21-го 12 UTC
Ветер 10 Узел от юго-западный
Видимость 10 км и более
Нет облачности ниже 1500 м, и нет кучево-дождевой облачности

TAF: UUOB 210200Z 2103/2112 22005MPS CAVOK

Метеонаблюдения и прогнозы для более 4000 аэропортов (сводки METAR и TAF).

Имеющиеся станции представлены на карте желтыми и красными точками.

Чтобы увидеть название станции, наведите на нее мышь.

Затем щелкните, чтобы увидеть метеонаблюдения и метеопрогнозы.

Управление картой: чтобы увеличить масштаб, щелкните зеленые кнопки с черным крестиком; чтобы уменьшить масштаб, щелкните зеленую кнопку с тире; для просмотра соседних карт щелкайте зеленые стрелки.


METAR-TAF: